createdAt,value
2016-10-04T00:00:33.850Z,0.00
2016-10-04T00:01:34.320Z,0.00
2016-10-04T00:02:34.821Z,0.00
2016-10-04T00:03:35.361Z,0.00
2016-10-04T00:04:35.816Z,0.00
2016-10-04T00:05:36.318Z,0.00
2016-10-04T00:06:36.848Z,0.00
2016-10-04T00:07:37.354Z,0.00
2016-10-04T00:08:37.819Z,0.00
2016-10-04T00:09:38.336Z,0.00
2016-10-04T00:10:38.963Z,0.00
2016-10-04T00:11:39.464Z,0.00
2016-10-04T00:12:39.838Z,0.00
2016-10-04T00:13:40.461Z,0.00
2016-10-04T00:14:40.833Z,0.00
2016-10-04T00:15:41.314Z,0.00
2016-10-04T00:16:41.820Z,0.00
2016-10-04T00:17:42.465Z,0.00
2016-10-04T00:18:42.817Z,0.00
2016-10-04T00:19:43.328Z,0.00
2016-10-04T00:20:43.848Z,0.00
2016-10-04T00:21:44.340Z,0.00
2016-10-04T00:22:44.838Z,0.10
2016-10-04T00:23:45.321Z,0.20
2016-10-04T00:24:45.826Z,0.20
2016-10-04T00:25:46.476Z,0.40
2016-10-04T00:26:46.816Z,0.40
2016-10-04T00:27:47.325Z,0.50
2016-10-04T00:28:47.844Z,0.50
2016-10-04T00:29:48.359Z,0.20
2016-10-04T00:30:48.847Z,0.30
2016-10-04T00:31:49.327Z,0.20
2016-10-04T00:32:49.971Z,0.10
2016-10-04T00:33:50.472Z,0.00
2016-10-04T00:34:50.866Z,0.10
2016-10-04T00:35:51.339Z,0.00
2016-10-04T00:36:51.843Z,0.00
2016-10-04T00:37:52.476Z,0.00
2016-10-04T00:38:52.825Z,0.00
2016-10-04T00:39:53.369Z,0.00
2016-10-04T00:40:53.825Z,0.00
2016-10-04T00:41:54.322Z,0.00
2016-10-04T00:42:54.823Z,0.00
2016-10-04T00:43:55.352Z,0.10
2016-10-04T00:44:55.971Z,0.10
2016-10-04T00:45:56.334Z,0.40
2016-10-04T00:46:56.820Z,0.10
2016-10-04T00:47:57.332Z,0.40
2016-10-04T00:48:57.844Z,0.40
2016-10-04T00:49:58.318Z,0.30
2016-10-04T00:50:58.968Z,0.20
2016-10-04T00:51:59.322Z,0.30
2016-10-04T00:52:59.838Z,0.50
2016-10-04T00:54:00.328Z,0.40
2016-10-04T00:55:00.840Z,0.60
2016-10-04T00:56:01.309Z,0.70
2016-10-04T00:57:01.825Z,0.60
2016-10-04T00:58:02.330Z,0.50
2016-10-04T00:59:02.839Z,0.50
2016-10-04T01:00:03.323Z,0.40
2016-10-04T01:01:03.856Z,0.20
2016-10-04T01:02:04.473Z,0.20
2016-10-04T01:03:04.820Z,0.30
2016-10-04T01:04:05.325Z,0.30
2016-10-04T01:05:05.881Z,0.10
2016-10-04T01:06:06.501Z,0.00
2016-10-04T01:07:06.854Z,0.00
2016-10-04T01:08:07.336Z,0.00
2016-10-04T01:09:07.837Z,0.00
2016-10-04T01:10:08.359Z,0.10
2016-10-04T01:11:08.979Z,0.40
2016-10-04T01:12:09.339Z,0.40
2016-10-04T01:13:09.850Z,0.50
2016-10-04T01:14:10.331Z,0.50
2016-10-04T01:15:10.835Z,0.50
2016-10-04T01:16:11.482Z,0.50
2016-10-04T01:17:11.845Z,0.40
2016-10-04T01:18:12.353Z,0.40
2016-10-04T01:19:12.837Z,0.00
2016-10-04T01:20:13.340Z,0.10
2016-10-04T01:21:13.850Z,0.40
2016-10-04T01:22:14.635Z,0.50
2016-10-04T01:23:14.838Z,0.20
2016-10-04T01:24:15.376Z,0.40
2016-10-04T01:25:15.980Z,0.40
2016-10-04T01:26:16.374Z,0.40
2016-10-04T01:27:16.984Z,0.00
2016-10-04T01:28:17.348Z,0.20
2016-10-04T01:29:17.981Z,0.30
2016-10-04T01:30:18.361Z,0.40
2016-10-04T01:31:18.846Z,0.30
2016-10-04T01:32:19.484Z,0.40
2016-10-04T01:33:19.847Z,0.70
2016-10-04T01:34:20.356Z,1.10
2016-10-04T01:35:20.996Z,0.50
2016-10-04T01:36:21.368Z,1.20
2016-10-04T01:37:21.839Z,1.10
2016-10-04T01:38:22.382Z,0.80
2016-10-04T01:39:22.834Z,1.10
2016-10-04T01:40:23.329Z,1.30
2016-10-04T01:41:23.841Z,0.60
2016-10-04T01:42:24.338Z,1.00
2016-10-04T01:43:24.841Z,1.60
2016-10-04T01:44:25.499Z,1.30
2016-10-04T01:45:25.995Z,0.40
2016-10-04T01:46:26.492Z,0.80
2016-10-04T01:47:27.005Z,0.70
2016-10-04T01:48:27.387Z,0.60
2016-10-04T01:49:27.891Z,0.40
2016-10-04T01:50:28.510Z,0.70
2016-10-04T01:51:28.853Z,0.60
2016-10-04T01:52:29.367Z,0.30
2016-10-04T01:53:29.874Z,0.30
2016-10-04T01:54:30.498Z,0.70
2016-10-04T01:55:30.856Z,0.70
2016-10-04T01:56:31.495Z,0.60
2016-10-04T01:57:31.990Z,0.40
2016-10-04T01:58:32.347Z,0.30
2016-10-04T01:59:32.996Z,0.70
2016-10-04T02:00:33.343Z,0.60
2016-10-04T02:01:33.840Z,0.70
2016-10-04T02:02:34.365Z,0.60
2016-10-04T02:03:34.990Z,0.50
2016-10-04T02:04:35.351Z,0.20
2016-10-04T02:05:35.991Z,0.40
2016-10-04T02:06:36.346Z,0.50
2016-10-04T02:07:36.845Z,0.30
2016-10-04T02:08:37.419Z,0.00
2016-10-04T02:09:37.992Z,0.00
2016-10-04T02:10:38.346Z,0.20
2016-10-04T02:11:38.846Z,0.00
2016-10-04T02:12:39.492Z,0.30
2016-10-04T02:13:39.996Z,0.30
2016-10-04T02:14:40.381Z,1.20
2016-10-04T02:15:40.853Z,1.50
2016-10-04T02:16:41.497Z,1.30
2016-10-04T02:17:41.988Z,1.20
2016-10-04T02:18:42.353Z,1.50
2016-10-04T02:19:42.854Z,1.50
2016-10-04T02:20:43.377Z,1.50
2016-10-04T02:21:43.873Z,1.20
2016-10-04T02:22:44.358Z,1.40
2016-10-04T02:23:44.888Z,1.10
2016-10-04T02:24:45.360Z,0.60
2016-10-04T02:25:45.883Z,0.60
2016-10-04T02:26:46.514Z,0.90
2016-10-04T02:27:47.012Z,0.90
2016-10-04T02:28:47.516Z,0.80
2016-10-04T02:29:47.900Z,1.40
2016-10-04T02:30:48.365Z,1.90
2016-10-04T02:31:48.899Z,2.00
2016-10-04T02:32:49.359Z,1.40
2016-10-04T02:33:49.863Z,1.40
2016-10-04T02:34:50.398Z,2.30
2016-10-04T02:35:50.883Z,1.50
2016-10-04T02:36:51.379Z,1.20
2016-10-04T02:37:51.880Z,1.80
2016-10-04T02:38:52.506Z,1.40
2016-10-04T02:39:52.885Z,1.90
2016-10-04T02:40:53.358Z,1.70
2016-10-04T02:41:53.855Z,2.10
2016-10-04T02:42:54.510Z,2.10
2016-10-04T02:43:55.001Z,1.30
2016-10-04T02:44:55.368Z,1.90
2016-10-04T02:45:56.016Z,1.90
2016-10-04T02:46:56.359Z,1.20
2016-10-04T02:47:56.888Z,1.70
2016-10-04T02:48:57.508Z,1.70
2016-10-04T02:49:58.007Z,1.20
2016-10-04T02:50:58.355Z,1.70
2016-10-04T02:51:58.856Z,1.60
2016-10-04T02:52:59.504Z,1.90
2016-10-04T02:53:59.904Z,1.70
2016-10-04T02:55:00.381Z,1.70
2016-10-04T02:56:00.855Z,1.30
2016-10-04T02:57:01.505Z,1.70
2016-10-04T02:58:01.878Z,1.60
2016-10-04T02:59:02.404Z,1.60
2016-10-04T03:00:02.892Z,1.60
2016-10-04T03:01:03.514Z,1.40
2016-10-04T03:02:04.011Z,1.40
2016-10-04T03:03:04.389Z,1.20
2016-10-04T03:04:05.015Z,0.80
2016-10-04T03:05:05.389Z,1.30
2016-10-04T03:06:05.877Z,1.30
2016-10-04T03:07:06.406Z,1.40
2016-10-04T03:08:06.914Z,1.70
2016-10-04T03:09:07.372Z,1.20
2016-10-04T03:10:07.892Z,1.10
2016-10-04T03:11:08.361Z,1.70
2016-10-04T03:12:08.859Z,1.90
2016-10-04T03:13:09.513Z,1.20
2016-10-04T03:14:10.008Z,1.10
2016-10-04T03:15:10.520Z,0.90
2016-10-04T03:16:10.878Z,1.60
2016-10-04T03:17:11.365Z,1.20
2016-10-04T03:18:12.007Z,1.50
2016-10-04T03:19:12.365Z,1.60
2016-10-04T03:20:12.875Z,1.90
2016-10-04T03:21:13.526Z,1.90
2016-10-04T03:22:13.880Z,1.70
2016-10-04T03:23:14.361Z,1.40
2016-10-04T03:24:14.882Z,1.60
2016-10-04T03:25:15.507Z,1.60
2016-10-04T03:26:15.871Z,1.40
2016-10-04T03:27:16.376Z,1.70
2016-10-04T03:28:16.870Z,2.30
2016-10-04T03:29:17.369Z,1.90
2016-10-04T03:30:17.860Z,1.60
2016-10-04T03:31:18.510Z,2.10
2016-10-04T03:32:18.882Z,2.30
2016-10-04T03:33:19.511Z,1.90
2016-10-04T03:34:19.903Z,2.30
2016-10-04T03:35:20.363Z,2.20
2016-10-04T03:36:20.907Z,1.90
2016-10-04T03:37:21.672Z,2.10
2016-10-04T03:38:21.879Z,2.30
2016-10-04T03:39:22.535Z,2.90
2016-10-04T03:40:22.915Z,1.80
2016-10-04T03:41:23.409Z,2.40
2016-10-04T03:42:23.886Z,2.50
2016-10-04T03:43:24.385Z,2.90
2016-10-04T03:44:24.900Z,2.10
2016-10-04T03:45:25.381Z,2.50
2016-10-04T03:46:25.887Z,2.50
2016-10-04T03:47:26.394Z,1.20
2016-10-04T03:48:27.028Z,0.90
2016-10-04T03:49:27.423Z,1.00
2016-10-04T03:50:27.908Z,1.60
2016-10-04T03:51:28.530Z,1.30
2016-10-04T03:52:29.030Z,0.90
2016-10-04T03:53:29.404Z,1.20
2016-10-04T03:54:29.882Z,0.90
2016-10-04T03:55:30.422Z,0.50
2016-10-04T03:56:31.029Z,0.90
2016-10-04T03:57:31.528Z,1.00
2016-10-04T03:58:31.881Z,1.20
2016-10-04T03:59:32.530Z,0.70
2016-10-04T04:00:32.890Z,1.50
2016-10-04T04:01:33.393Z,0.90
2016-10-04T04:02:33.897Z,1.00
2016-10-04T04:03:34.385Z,1.40
2016-10-04T04:04:35.024Z,1.20
2016-10-04T04:05:35.525Z,1.10
2016-10-04T04:06:35.905Z,0.80
2016-10-04T04:07:36.525Z,0.90
2016-10-04T04:08:37.025Z,1.70
2016-10-04T04:09:37.381Z,1.60
2016-10-04T04:11:38.394Z,1.50
2016-10-04T04:12:39.039Z,1.60
2016-10-04T04:13:39.532Z,1.40
2016-10-04T04:14:39.896Z,0.90
2016-10-04T04:15:40.533Z,0.80
2016-10-04T04:16:40.946Z,1.10
2016-10-04T04:17:41.411Z,1.20
2016-10-04T04:18:41.883Z,0.90
2016-10-04T04:19:42.393Z,0.60
2016-10-04T04:20:43.031Z,0.70
2016-10-04T04:21:43.458Z,1.40
2016-10-04T04:22:43.914Z,1.40
2016-10-04T04:23:44.406Z,1.40
2016-10-04T04:24:44.882Z,1.10
2016-10-04T04:25:45.385Z,0.80
2016-10-04T04:26:45.930Z,1.10
2016-10-04T04:27:46.397Z,1.80
2016-10-04T04:28:46.923Z,1.60
2016-10-04T04:29:47.378Z,0.90
2016-10-04T04:30:48.026Z,1.00
2016-10-04T04:31:48.533Z,0.80
2016-10-04T04:32:48.884Z,0.80
2016-10-04T04:33:49.531Z,0.80
2016-10-04T04:34:50.024Z,1.30
2016-10-04T04:35:50.377Z,1.40
2016-10-04T04:36:51.042Z,0.80
2016-10-04T04:37:51.377Z,0.90
2016-10-04T04:38:51.893Z,1.00
2016-10-04T04:39:52.375Z,0.80
2016-10-04T04:40:52.887Z,0.30
2016-10-04T04:41:53.529Z,1.00
2016-10-04T04:42:54.024Z,1.10
2016-10-04T04:43:54.527Z,1.80
2016-10-04T04:44:54.884Z,1.90
2016-10-04T04:45:55.377Z,1.80
2016-10-04T04:46:55.896Z,1.90
2016-10-04T04:47:56.524Z,1.80
2016-10-04T04:48:56.893Z,1.00
2016-10-04T04:49:57.423Z,1.20
2016-10-04T04:50:58.035Z,1.20
2016-10-04T04:51:58.405Z,1.20
2016-10-04T04:52:59.035Z,1.70
2016-10-04T04:53:59.396Z,0.80
2016-10-04T04:55:00.039Z,0.60
2016-10-04T04:56:00.403Z,0.90
2016-10-04T04:57:00.920Z,1.40
2016-10-04T04:58:01.388Z,1.20
2016-10-04T04:59:01.894Z,2.00
2016-10-04T05:00:02.404Z,1.60
2016-10-04T05:01:02.891Z,1.60
2016-10-04T05:02:03.393Z,1.80
2016-10-04T05:03:03.892Z,1.80
2016-10-04T05:04:04.408Z,2.10
2016-10-04T05:05:05.047Z,2.00
2016-10-04T05:06:05.546Z,2.30
2016-10-04T05:07:05.901Z,2.70
2016-10-04T05:08:06.439Z,2.50
2016-10-04T05:09:06.900Z,2.40
2016-10-04T05:10:07.545Z,1.80
2016-10-04T05:11:07.911Z,1.50
2016-10-04T05:12:08.413Z,1.20
2016-10-04T05:13:09.044Z,1.70
2016-10-04T05:14:09.390Z,1.60
2016-10-04T05:15:09.914Z,1.60
2016-10-04T05:16:10.437Z,1.40
2016-10-04T05:17:11.041Z,1.20
2016-10-04T05:18:11.541Z,1.10
2016-10-04T05:19:11.902Z,2.90
2016-10-04T05:20:12.389Z,2.70
2016-10-04T05:21:12.915Z,2.00
2016-10-04T05:22:13.545Z,1.50
2016-10-04T05:23:13.923Z,0.80
2016-10-04T05:24:14.539Z,0.80
2016-10-04T05:25:14.902Z,0.50
2016-10-04T05:26:15.544Z,0.70
2016-10-04T05:27:16.063Z,0.70
2016-10-04T05:28:16.398Z,0.90
2016-10-04T05:29:17.048Z,0.70
2016-10-04T05:30:17.436Z,1.10
2016-10-04T05:31:18.050Z,1.30
2016-10-04T05:32:18.424Z,1.40
2016-10-04T05:33:18.929Z,1.00
2016-10-04T05:34:19.402Z,0.80
2016-10-04T05:35:20.044Z,2.90
2016-10-04T05:36:20.551Z,2.70
2016-10-04T05:37:21.062Z,1.80
2016-10-04T05:38:21.412Z,2.20
2016-10-04T05:39:21.936Z,1.60
2016-10-04T05:40:22.421Z,1.30
2016-10-04T05:41:23.046Z,1.90
2016-10-04T05:42:23.418Z,1.60
2016-10-04T05:43:24.048Z,1.10
2016-10-04T05:44:24.548Z,1.00
2016-10-04T05:45:24.906Z,0.60
2016-10-04T05:46:25.547Z,1.10
2016-10-04T05:47:25.926Z,1.60
2016-10-04T05:48:26.557Z,2.70
2016-10-04T05:49:27.048Z,2.30
2016-10-04T05:50:27.436Z,2.50
2016-10-04T05:51:27.898Z,1.80
2016-10-04T05:52:28.547Z,2.40
2016-10-04T05:53:29.042Z,3.90
2016-10-04T05:54:29.543Z,3.90
2016-10-04T05:55:29.916Z,2.60
2016-10-04T05:56:30.548Z,1.80
2016-10-04T05:57:31.035Z,2.00
2016-10-04T05:58:31.536Z,2.10
2016-10-04T05:59:31.908Z,2.20
2016-10-04T06:00:32.536Z,1.80
2016-10-04T06:01:32.887Z,2.00
2016-10-04T06:02:33.410Z,2.00
2016-10-04T06:03:34.036Z,2.00
2016-10-04T06:04:34.408Z,1.80
2016-10-04T06:05:35.042Z,2.20
2016-10-04T06:06:35.553Z,1.20
2016-10-04T06:07:36.046Z,1.30
2016-10-04T06:08:36.408Z,0.90
2016-10-04T06:09:36.931Z,1.30
2016-10-04T06:10:37.441Z,1.00
2016-10-04T06:11:37.907Z,1.20
2016-10-04T06:12:38.442Z,1.00
2016-10-04T06:13:39.051Z,0.60
2016-10-04T06:14:39.437Z,0.70
2016-10-04T06:15:39.922Z,1.40
2016-10-04T06:16:40.555Z,1.30
2016-10-04T06:17:41.043Z,2.20
2016-10-04T06:18:41.548Z,2.00
2016-10-04T06:19:42.051Z,2.00
2016-10-04T06:20:42.412Z,1.80
2016-10-04T06:21:43.046Z,2.20
2016-10-04T06:22:43.423Z,1.50
2016-10-04T06:23:44.043Z,1.20
2016-10-04T06:24:44.401Z,1.30
2016-10-04T06:25:45.059Z,1.10
2016-10-04T06:26:45.547Z,0.90
2016-10-04T06:27:46.067Z,0.40
2016-10-04T06:28:46.414Z,0.60
2016-10-04T06:29:47.042Z,1.00
2016-10-04T06:30:47.413Z,1.00
2016-10-04T06:31:48.044Z,1.20
2016-10-04T06:32:48.544Z,0.70
2016-10-04T06:33:49.064Z,0.60
2016-10-04T06:34:49.418Z,0.60
2016-10-04T06:35:49.924Z,0.70
2016-10-04T06:36:50.401Z,0.70
2016-10-04T06:37:51.046Z,1.20
2016-10-04T06:38:51.434Z,1.20
2016-10-04T06:39:51.912Z,0.60
2016-10-04T06:40:52.411Z,0.70
2016-10-04T06:41:53.049Z,0.40
2016-10-04T06:42:53.545Z,0.40
2016-10-04T06:43:53.923Z,0.60
2016-10-04T06:44:54.557Z,0.70
2016-10-04T06:45:54.934Z,0.40
2016-10-04T06:46:55.554Z,0.50
2016-10-04T06:47:55.933Z,0.30
2016-10-04T06:48:56.444Z,0.60
2016-10-04T06:49:56.930Z,1.10
2016-10-04T06:50:57.429Z,1.10
2016-10-04T06:51:57.928Z,0.80
2016-10-04T06:52:58.427Z,0.40
2016-10-04T06:53:58.930Z,0.40
2016-10-04T06:54:59.556Z,0.90
2016-10-04T06:55:59.937Z,1.90
2016-10-04T06:57:00.553Z,1.90
2016-10-04T06:58:00.908Z,2.20
2016-10-04T06:59:01.560Z,1.70
2016-10-04T07:00:02.047Z,1.20
2016-10-04T07:01:02.400Z,1.30
2016-10-04T07:02:03.051Z,1.30
2016-10-04T07:03:03.551Z,0.70
2016-10-04T07:04:04.051Z,0.80
2016-10-04T07:05:04.398Z,1.00
2016-10-04T07:06:05.044Z,0.80
2016-10-04T07:07:05.411Z,0.80
2016-10-04T07:08:05.916Z,2.00
2016-10-04T07:09:06.544Z,2.50
2016-10-04T07:10:06.904Z,2.50
2016-10-04T07:11:07.394Z,1.80
2016-10-04T07:12:08.045Z,1.50
2016-10-04T07:13:08.400Z,2.00
2016-10-04T07:14:08.927Z,1.90
2016-10-04T07:15:09.545Z,2.90
2016-10-04T07:16:09.926Z,3.80
2016-10-04T07:17:10.545Z,2.70
2016-10-04T07:18:10.892Z,2.90
2016-10-04T07:19:11.405Z,1.80
2016-10-04T07:20:11.896Z,1.30
2016-10-04T07:21:12.551Z,1.20
2016-10-04T07:22:12.903Z,1.30
2016-10-04T07:23:13.403Z,1.90
2016-10-04T07:24:13.908Z,1.50
2016-10-04T07:25:14.401Z,3.00
2016-10-04T07:26:14.913Z,3.20
2016-10-04T07:27:15.554Z,2.40
2016-10-04T07:28:15.922Z,2.80
2016-10-04T07:29:16.426Z,2.20
2016-10-04T07:30:17.053Z,1.30
2016-10-04T07:31:17.403Z,2.00
2016-10-04T07:32:17.925Z,2.60
2016-10-04T07:33:18.413Z,1.70
2016-10-04T07:34:19.052Z,0.60
2016-10-04T07:35:19.431Z,1.20
2016-10-04T07:36:20.050Z,0.70
2016-10-04T07:37:20.427Z,1.40
2016-10-04T07:38:21.052Z,1.10
2016-10-04T07:39:21.429Z,0.50
2016-10-04T07:40:21.933Z,1.50
2016-10-04T07:41:22.424Z,0.70
2016-10-04T07:42:22.904Z,0.90
2016-10-04T07:43:23.402Z,1.70
2016-10-04T07:44:24.047Z,1.90
2016-10-04T07:45:24.419Z,1.00
2016-10-04T07:46:25.047Z,0.60
2016-10-04T07:47:25.420Z,1.50
2016-10-04T07:48:25.923Z,2.40
2016-10-04T07:49:26.410Z,1.40
2016-10-04T07:50:26.901Z,0.40
2016-10-04T07:51:27.427Z,0.40
2016-10-04T07:52:28.046Z,0.50
2016-10-04T07:53:28.418Z,1.70
2016-10-04T07:54:28.921Z,1.60
2016-10-04T07:55:29.419Z,1.60
2016-10-04T07:56:30.048Z,1.10
2016-10-04T07:57:30.554Z,1.10
2016-10-04T07:58:30.930Z,1.20
2016-10-04T07:59:31.447Z,1.20
2016-10-04T08:00:31.937Z,0.40
2016-10-04T08:01:32.444Z,0.20
2016-10-04T08:02:33.060Z,1.20
2016-10-04T08:03:33.434Z,1.50
2016-10-04T08:04:33.911Z,1.50
2016-10-04T08:05:34.433Z,0.90
2016-10-04T08:06:34.905Z,1.20
2016-10-04T08:07:35.555Z,1.00
2016-10-04T08:08:35.932Z,2.30
2016-10-04T08:09:36.418Z,2.30
2016-10-04T08:10:36.904Z,1.70
2016-10-04T08:11:37.404Z,1.70
2016-10-04T08:12:38.053Z,1.90
2016-10-04T08:13:38.407Z,3.00
2016-10-04T08:14:38.931Z,2.60
2016-10-04T08:15:39.440Z,3.90
2016-10-04T08:16:39.911Z,3.40
2016-10-04T08:17:40.428Z,2.50
2016-10-04T08:18:40.931Z,1.40
2016-10-04T08:19:41.431Z,2.10
2016-10-04T08:20:42.054Z,2.30
2016-10-04T08:21:42.555Z,0.50
2016-10-04T08:22:43.061Z,0.70
2016-10-04T08:23:43.556Z,1.60
2016-10-04T08:24:44.068Z,2.90
2016-10-04T08:25:44.552Z,1.40
2016-10-04T08:26:44.920Z,0.60
2016-10-04T08:27:45.449Z,1.30
2016-10-04T08:28:46.072Z,1.80
2016-10-04T08:29:46.431Z,2.40
2016-10-04T08:30:47.046Z,1.90
2016-10-04T08:31:47.436Z,1.90
2016-10-04T08:32:48.048Z,3.30
2016-10-04T08:33:48.397Z,2.20
2016-10-04T08:34:48.946Z,1.20
2016-10-04T08:35:49.567Z,4.00
2016-10-04T08:36:49.913Z,3.30
2016-10-04T08:37:50.426Z,1.80
2016-10-04T08:38:50.937Z,1.30
2016-10-04T08:39:51.439Z,0.70
2016-10-04T08:40:51.939Z,2.10
2016-10-04T08:41:52.560Z,3.40
2016-10-04T08:42:53.059Z,4.00
2016-10-04T08:43:53.560Z,2.60
2016-10-04T08:44:53.941Z,1.60
2016-10-04T08:45:54.414Z,1.20
2016-10-04T08:46:55.056Z,1.50
2016-10-04T08:47:55.574Z,2.10
2016-10-04T08:48:56.051Z,1.70
2016-10-04T08:49:56.434Z,0.90
2016-10-04T08:50:56.905Z,2.00
2016-10-04T08:51:57.557Z,2.50
2016-10-04T08:52:57.925Z,1.60
2016-10-04T08:53:58.554Z,0.90
2016-10-04T08:54:58.907Z,0.90
2016-10-04T08:55:59.431Z,1.10
2016-10-04T08:57:00.054Z,0.70
2016-10-04T08:58:00.405Z,1.20
2016-10-04T08:59:01.059Z,3.70
2016-10-04T09:00:01.415Z,4.10
2016-10-04T09:01:02.052Z,2.70
2016-10-04T09:02:02.552Z,4.60
2016-10-04T09:03:03.051Z,2.50
2016-10-04T09:04:03.418Z,2.10
2016-10-04T09:05:03.921Z,1.60
2016-10-04T09:06:04.428Z,1.50
2016-10-04T09:07:04.933Z,2.50
2016-10-04T09:08:05.403Z,2.00
2016-10-04T09:09:05.929Z,1.60
2016-10-04T09:10:06.552Z,1.30
2016-10-04T09:11:06.911Z,2.20
2016-10-04T09:12:07.428Z,2.10
2016-10-04T09:13:08.046Z,1.60
2016-10-04T09:14:08.414Z,1.60
2016-10-04T09:15:08.933Z,0.90
2016-10-04T09:16:09.429Z,0.70
2016-10-04T09:17:09.939Z,1.00
2016-10-04T09:18:10.405Z,1.80
2016-10-04T09:19:10.937Z,3.00
2016-10-04T09:20:11.442Z,2.20
2016-10-04T09:21:11.942Z,1.30
2016-10-04T09:22:12.427Z,0.90
2016-10-04T09:23:12.929Z,1.30
2016-10-04T09:24:13.419Z,1.70
2016-10-04T09:25:13.905Z,1.10
2016-10-04T09:26:14.430Z,0.20
2016-10-04T09:27:15.048Z,0.70
2016-10-04T09:28:15.412Z,0.60
2016-10-04T09:29:15.921Z,1.20
2016-10-04T09:30:16.575Z,0.50
2016-10-04T09:31:16.895Z,0.50
2016-10-04T09:32:17.545Z,0.40
2016-10-04T09:33:18.043Z,0.00
2016-10-04T09:34:18.545Z,1.30
2016-10-04T09:35:19.039Z,0.00
2016-10-04T09:36:19.556Z,1.00
2016-10-04T09:37:19.906Z,2.50
2016-10-04T09:38:20.417Z,0.80
2016-10-04T09:39:20.892Z,0.40
2016-10-04T09:40:21.542Z,0.00
2016-10-04T09:41:21.903Z,0.70
2016-10-04T09:42:22.426Z,0.90
2016-10-04T09:43:23.034Z,0.60
2016-10-04T09:44:23.407Z,0.00
2016-10-04T09:45:23.920Z,0.00
2016-10-04T09:46:24.539Z,0.20
2016-10-04T09:47:25.035Z,0.00
2016-10-04T09:48:25.416Z,0.00
2016-10-04T09:49:25.914Z,0.80
2016-10-04T09:50:26.412Z,1.70
2016-10-04T09:51:26.896Z,1.30
2016-10-04T09:52:27.423Z,0.60
2016-10-04T09:53:28.047Z,0.70
2016-10-04T09:54:28.425Z,1.00
2016-10-04T09:55:29.044Z,1.20
2016-10-04T09:56:29.548Z,2.70
2016-10-04T09:57:29.926Z,1.80
2016-10-04T09:58:30.404Z,1.20
2016-10-04T09:59:30.934Z,0.90
2016-10-04T10:00:31.554Z,1.50
2016-10-04T10:01:31.927Z,2.10
2016-10-04T10:02:32.442Z,1.40
2016-10-04T10:03:32.909Z,2.50
2016-10-04T10:04:33.436Z,2.50
2016-10-04T10:05:33.904Z,1.00
2016-10-04T10:06:34.428Z,1.60
2016-10-04T10:07:34.909Z,2.10
2016-10-04T10:08:35.417Z,1.90
2016-10-04T10:09:36.053Z,1.10
2016-10-04T10:10:36.422Z,0.70
2016-10-04T10:11:37.047Z,0.40
2016-10-04T10:12:37.552Z,0.40
2016-10-04T10:13:38.096Z,0.40
2016-10-04T10:14:38.555Z,0.70
2016-10-04T10:15:39.048Z,0.00
2016-10-04T10:16:39.554Z,0.50
2016-10-04T10:17:39.906Z,0.50
2016-10-04T10:18:40.439Z,3.10
2016-10-04T10:19:40.904Z,2.30
2016-10-04T10:20:41.410Z,1.50
2016-10-04T10:21:42.050Z,0.30
2016-10-04T10:22:42.406Z,0.00
2016-10-04T10:23:42.932Z,1.90
2016-10-04T10:24:43.555Z,2.50
2016-10-04T10:25:44.059Z,1.30
2016-10-04T10:26:44.445Z,2.00
2016-10-04T10:27:45.050Z,1.80
2016-10-04T10:28:45.422Z,1.30
2016-10-04T10:29:46.056Z,2.60
2016-10-04T10:30:46.435Z,1.80
2016-10-04T10:31:47.058Z,3.30
2016-10-04T10:32:47.563Z,2.90
2016-10-04T10:33:47.923Z,1.30
2016-10-04T10:34:48.426Z,1.80
2016-10-04T10:35:48.908Z,2.70
2016-10-04T10:36:49.555Z,1.90
2016-10-04T10:37:50.052Z,2.50
2016-10-04T10:38:50.432Z,1.70
2016-10-04T10:39:50.938Z,1.80
2016-10-04T10:40:51.551Z,1.60
2016-10-04T10:41:51.922Z,1.30
2016-10-04T10:42:52.418Z,0.60
2016-10-04T10:43:52.924Z,0.80
2016-10-04T10:44:53.549Z,0.50
2016-10-04T10:45:53.909Z,0.60
2016-10-04T10:46:54.400Z,0.80
2016-10-04T10:47:54.950Z,0.80
2016-10-04T10:48:55.400Z,0.40
2016-10-04T10:49:55.925Z,0.40
2016-10-04T10:50:56.545Z,1.00
2016-10-04T10:51:57.044Z,0.00
2016-10-04T10:52:57.413Z,0.70
2016-10-04T10:53:58.043Z,2.30
2016-10-04T10:54:58.545Z,0.90
2016-10-04T10:55:58.898Z,1.40
2016-10-04T10:56:59.542Z,0.60
2016-10-04T10:58:00.193Z,0.20
2016-10-04T10:59:00.386Z,0.20
2016-10-04T11:00:00.914Z,0.40
2016-10-04T11:01:01.416Z,2.30
2016-10-04T11:02:01.909Z,0.70
2016-10-04T11:03:02.527Z,0.20
2016-10-04T11:04:03.030Z,0.20
2016-10-04T11:05:03.397Z,1.20
2016-10-04T11:06:03.882Z,0.70
2016-10-04T11:07:04.549Z,0.40
2016-10-04T11:08:04.909Z,1.10
2016-10-04T11:09:05.395Z,1.70
2016-10-04T11:10:06.039Z,1.30
2016-10-04T11:11:06.421Z,0.70
2016-10-04T11:12:06.916Z,0.00
2016-10-04T11:13:07.387Z,0.60
2016-10-04T11:14:08.039Z,2.10
2016-10-04T11:15:08.537Z,1.90
2016-10-04T11:16:08.890Z,2.50
2016-10-04T11:17:09.382Z,2.00
2016-10-04T11:18:09.910Z,0.50
2016-10-04T11:19:10.641Z,1.50
2016-10-04T11:20:10.886Z,0.50
2016-10-04T11:21:11.427Z,2.10
2016-10-04T11:22:12.044Z,1.20
2016-10-04T11:23:12.534Z,0.30
2016-10-04T11:24:13.031Z,0.50
2016-10-04T11:25:13.426Z,0.90
2016-10-04T11:26:14.037Z,0.30
2016-10-04T11:27:14.405Z,0.50
2016-10-04T11:28:14.910Z,0.90
2016-10-04T11:29:15.529Z,0.00
2016-10-04T11:30:15.913Z,0.00
2016-10-04T11:31:16.381Z,0.30
2016-10-04T11:32:16.917Z,0.00
2016-10-04T11:33:17.402Z,0.00
2016-10-04T11:34:17.895Z,1.70
2016-10-04T11:35:18.377Z,0.00
2016-10-04T11:36:19.027Z,0.60
2016-10-04T11:37:19.411Z,1.40
2016-10-04T11:38:19.874Z,0.70
2016-10-04T11:39:20.378Z,1.30
2016-10-04T11:40:20.910Z,0.80
2016-10-04T11:41:21.420Z,0.00
2016-10-04T11:42:22.039Z,0.30
2016-10-04T11:43:22.530Z,0.90
2016-10-04T11:44:22.899Z,1.30
2016-10-04T11:45:23.536Z,0.30
2016-10-04T11:46:23.903Z,0.20
2016-10-04T11:47:24.546Z,0.40
2016-10-04T11:48:24.909Z,0.00
2016-10-04T11:49:25.422Z,0.20
2016-10-04T11:50:25.914Z,0.80
2016-10-04T11:51:26.530Z,1.20
2016-10-04T11:52:27.025Z,0.60
2016-10-04T11:53:27.384Z,4.30
2016-10-04T11:54:27.881Z,3.50
2016-10-04T11:55:28.374Z,1.00
2016-10-04T11:56:29.026Z,1.90
2016-10-04T11:57:29.536Z,1.70
2016-10-04T11:58:30.019Z,3.20
2016-10-04T11:59:30.521Z,3.80
2016-10-04T12:00:31.018Z,1.80
2016-10-04T12:01:31.408Z,1.40
2016-10-04T12:02:31.912Z,2.20
2016-10-04T12:03:32.371Z,2.20
2016-10-04T12:04:33.015Z,3.50
2016-10-04T12:05:33.397Z,2.60
2016-10-04T12:06:33.885Z,1.50
2016-10-04T12:07:34.388Z,1.70
2016-10-04T12:08:34.865Z,1.70
2016-10-04T12:09:35.393Z,1.80
2016-10-04T12:10:36.013Z,1.80
2016-10-04T12:11:36.374Z,1.90
2016-10-04T12:12:37.011Z,2.50
2016-10-04T12:13:37.390Z,3.30
2016-10-04T12:14:37.887Z,3.00
2016-10-04T12:15:38.508Z,4.30
2016-10-04T12:16:38.877Z,3.80
2016-10-04T12:17:39.508Z,2.10
2016-10-04T12:18:39.998Z,1.90
2016-10-04T12:19:40.399Z,4.10
2016-10-04T12:20:40.890Z,3.20
2016-10-04T12:21:41.508Z,4.00
2016-10-04T12:22:41.878Z,2.80
2016-10-04T12:23:42.514Z,2.40
2016-10-04T12:24:43.034Z,1.40
2016-10-04T12:25:43.407Z,1.50
2016-10-04T12:26:44.014Z,1.30
2016-10-04T12:27:44.524Z,0.90
2016-10-04T12:28:45.011Z,2.00
2016-10-04T12:29:45.405Z,1.80
2016-10-04T12:30:45.886Z,1.60
2016-10-04T12:31:46.512Z,1.50
2016-10-04T12:32:47.011Z,1.50
2016-10-04T12:33:47.401Z,2.80
2016-10-04T12:34:47.892Z,1.50
2016-10-04T12:35:48.381Z,1.20
2016-10-04T12:36:48.885Z,2.60
2016-10-04T12:37:49.382Z,3.20
2016-10-04T12:38:49.877Z,3.20
2016-10-04T12:39:50.376Z,1.90
2016-10-04T12:40:50.858Z,1.10
2016-10-04T12:41:51.511Z,3.40
2016-10-04T12:42:52.002Z,3.90
2016-10-04T12:43:52.400Z,3.50
2016-10-04T12:44:53.021Z,2.00
2016-10-04T12:45:53.373Z,2.70
2016-10-04T12:46:53.895Z,1.30
2016-10-04T12:47:54.394Z,1.40
2016-10-04T12:48:54.884Z,1.80
2016-10-04T12:49:55.502Z,1.80
2016-10-04T12:50:55.882Z,1.70
2016-10-04T12:51:56.366Z,0.80
2016-10-04T12:52:56.851Z,1.30
2016-10-04T12:53:57.505Z,2.00
2016-10-04T12:54:57.849Z,1.40
2016-10-04T12:55:58.501Z,2.40
2016-10-04T12:56:58.881Z,3.00
2016-10-04T12:57:59.369Z,3.80
2016-10-04T12:58:59.998Z,2.60
2016-10-04T13:00:00.400Z,3.40
2016-10-04T13:01:00.858Z,2.10
2016-10-04T13:02:01.516Z,3.50
2016-10-04T13:03:01.891Z,3.80
2016-10-04T13:04:02.361Z,4.40
2016-10-04T13:05:03.012Z,3.20
2016-10-04T13:06:03.511Z,1.90
2016-10-04T13:07:04.015Z,0.80
2016-10-04T13:08:04.391Z,1.70
2016-10-04T13:09:04.916Z,1.70
2016-10-04T13:10:05.513Z,2.00
2016-10-04T13:11:05.872Z,2.00
2016-10-04T13:12:06.409Z,1.60
2016-10-04T13:13:07.010Z,2.90
2016-10-04T13:14:07.364Z,2.10
2016-10-04T13:15:07.865Z,2.10
2016-10-04T13:16:08.383Z,4.40
2016-10-04T13:17:08.853Z,2.90
2016-10-04T13:18:09.380Z,3.50
2016-10-04T13:19:09.866Z,1.80
2016-10-04T13:20:10.350Z,2.00
2016-10-04T13:21:10.882Z,1.70
2016-10-04T13:22:11.377Z,1.20
2016-10-04T13:23:11.996Z,1.80
2016-10-04T13:24:12.351Z,1.60
2016-10-04T13:25:12.878Z,1.90
2016-10-04T13:26:13.390Z,1.80